Time;durP1;ratioP1;P1;durP2;ratioP2;P2;SDS_P1;SDS_P2;PMS_P1;PMS_P2;Temp;Humidity;BMP_temperature;BMP_pressure;BME280_temperature;BME280_humidity;BME280_pressure;Samples;Min_cycle;Max_cycle;Signal;HPM_P1;HPM_P2
2023/04/08 00:01:38;;;;;;;13.00;6.10;;;8.80;99.90;;;;;;5051384;28;20432;-54
2023/04/08 00:04:04;;;;;;;17.77;7.60;;;8.90;99.90;;;;;;5051962;28;20754;-54
2023/04/08 00:06:30;;;;;;;16.38;7.45;;;8.90;99.90;;;;;;5051584;28;20500;-54
2023/04/08 00:08:56;;;;;;;15.23;7.13;;;8.80;99.90;;;;;;5050780;28;20378;-54
2023/04/08 00:11:21;;;;;;;16.08;7.30;;;8.90;99.90;;;;;;5051828;28;20455;-54
2023/04/08 00:13:47;;;;;;;15.30;7.23;;;8.90;99.90;;;;;;5050699;28;20444;-54
2023/04/08 00:16:12;;;;;;;17.80;7.90;;;8.90;99.90;;;;;;5051625;28;20385;-54
2023/04/08 00:18:38;;;;;;;16.65;7.10;;;9.00;99.90;;;;;;5051292;28;20920;-54
2023/04/08 00:21:04;;;;;;;13.10;6.07;;;8.80;99.90;;;;;;5051241;28;20435;-54
2023/04/08 00:23:29;;;;;;;16.42;7.10;;;8.70;99.90;;;;;;5051608;28;20455;-54
2023/04/08 00:25:55;;;;;;;16.33;7.70;;;8.80;99.90;;;;;;5050794;28;20848;-54
2023/04/08 00:28:20;;;;;;;14.27;7.20;;;8.80;99.90;;;;;;5051229;28;20380;-54
2023/04/08 00:30:46;;;;;;;17.88;7.90;;;8.90;99.90;;;;;;5049797;28;20440;-54
2023/04/08 00:33:12;;;;;;;16.97;7.13;;;8.80;99.90;;;;;;5050782;28;20463;-54
2023/04/08 00:35:37;;;;;;;15.45;6.97;;;8.60;1.00;;;;;;5050893;28;20385;-54
2023/04/08 00:38:06;;;;;;;16.83;7.57;;;8.70;99.90;;;;;;5051352;28;20422;-54
2023/04/08 00:40:33;;;;;;;14.52;7.13;;;8.70;99.90;;;;;;5051151;28;20388;-54
2023/04/08 00:42:58;;;;;;;15.82;6.88;;;8.80;1.00;;;;;;5050802;28;20468;-54
2023/04/08 00:45:24;;;;;;;16.67;7.40;;;8.80;99.90;;;;;;5051035;28;20843;-54
2023/04/08 00:47:51;;;;;;;15.93;8.00;;;8.80;99.90;;;;;;5050362;28;20380;-54
2023/04/08 00:50:18;;;;;;;17.55;7.75;;;9.00;99.90;;;;;;5050759;28;20386;-54
2023/04/08 00:52:43;;;;;;;14.38;7.43;;;8.90;99.90;;;;;;5050280;28;20400;-54
2023/04/08 00:55:09;;;;;;;14.93;7.33;;;8.90;99.90;;;;;;5050794;28;20463;-54
2023/04/08 00:57:35;;;;;;;16.00;7.33;;;8.80;99.90;;;;;;5051207;28;20872;-54
2023/04/08 01:00:04;;;;;;;14.68;6.45;;;8.80;99.90;;;;;;5050157;28;20451;-54
2023/04/08 01:02:56;;;;;;;14.10;7.17;;;8.80;99.90;;;;;;5051096;28;20386;-54
2023/04/08 01:06:04;;;;;;;16.58;7.28;;;8.80;99.90;;;;;;5051007;28;20374;-54
2023/04/08 01:08:31;;;;;;;16.23;8.15;;;8.80;99.90;;;;;;5013294;28;20445;-54
2023/04/08 01:11:00;;;;;;;18.20;7.80;;;8.80;99.90;;;;;;5050288;28;20370;-54
2023/04/08 01:13:29;;;;;;;21.58;9.90;;;8.90;99.90;;;;;;5050575;28;20401;-54
2023/04/08 01:15:55;;;;;;;16.80;8.38;;;8.90;99.90;;;;;;5049755;28;20385;-54
2023/04/08 01:18:21;;;;;;;16.83;7.80;;;8.90;99.90;;;;;;5050950;28;20460;-54
2023/04/08 01:20:49;;;;;;;16.27;8.25;;;9.00;99.90;;;;;;5049418;28;20435;-54
2023/04/08 01:23:50;;;;;;;16.85;7.70;;;9.10;99.90;;;;;;5049811;28;20735;-55
2023/04/08 01:26:22;;;;;;;17.45;8.05;;;9.20;99.90;;;;;;5050208;28;20412;-54
2023/04/08 01:28:51;;;;;;;14.32;7.15;;;9.50;99.90;;;;;;5050173;28;20396;-54
2023/04/08 01:31:18;;;;;;;15.55;8.07;;;9.20;1.00;;;;;;5030400;28;20457;-54
2023/04/08 01:33:46;;;;;;;14.77;6.95;;;9.30;21.80;;;;;;5029564;28;20417;-54
2023/04/08 01:36:13;;;;;;;16.48;8.05;;;9.20;1.00;;;;;;5030344;28;20379;-54
2023/04/08 01:38:39;;;;;;;14.02;6.85;;;9.20;1.00;;;;;;5030554;28;20386;-54
2023/04/08 01:41:09;;;;;;;16.25;7.80;;;8.50;1.00;;;;;;5029182;28;20389;-54
2023/04/08 01:43:35;;;;;;;18.08;8.63;;;8.90;92.30;;;;;;5029760;28;20394;-54
2023/04/08 01:46:01;;;;;;;19.30;8.73;;;8.80;99.90;;;;;;5029082;28;20434;-54
2023/04/08 01:48:28;;;;;;;18.73;7.68;;;8.70;99.90;;;;;;5030159;28;20379;-54
2023/04/08 01:50:55;;;;;;;19.73;8.60;;;8.70;99.90;;;;;;5029072;28;20793;-54
2023/04/08 01:53:22;;;;;;;16.88;8.13;;;8.80;99.90;;;;;;5029908;28;20407;-53
2023/04/08 01:55:53;;;;;;;20.00;8.80;;;8.80;99.90;;;;;;5029353;28;20934;-53
2023/04/08 01:58:20;;;;;;;19.25;8.25;;;8.80;99.90;;;;;;5030191;28;20848;-53
2023/04/08 02:00:47;;;;;;;18.10;8.07;;;8.90;99.90;;;;;;5028517;28;20442;-54
2023/04/08 02:03:16;;;;;;;16.55;7.57;;;8.90;99.90;;;;;;5029947;28;20432;-53
2023/04/08 02:05:41;;;;;;;17.27;8.68;;;8.90;99.90;;;;;;5029406;28;20386;-53
2023/04/08 02:08:07;;;;;;;17.57;7.60;;;8.80;99.90;;;;;;5029966;28;20386;-53
2023/04/08 02:10:33;;;;;;;20.55;7.38;;;9.00;99.90;;;;;;5029889;28;20391;-53
2023/04/08 02:13:00;;;;;;;19.30;8.53;;;8.80;99.90;;;;;;5029048;28;20379;-53
2023/04/08 02:15:27;;;;;;;17.25;8.32;;;8.80;99.90;;;;;;5029746;28;20387;-53
2023/04/08 02:18:01;;;;;;;17.13;8.30;;;8.80;99.90;;;;;;5028774;28;20379;-53
2023/04/08 02:20:37;;;;;;;16.80;7.63;;;8.70;99.90;;;;;;5029875;28;20383;-53
2023/04/08 02:23:12;;;;;;;15.65;7.22;;;9.50;84.20;;;;;;5029191;28;20383;-53
2023/04/08 02:25:42;;;;;;;16.50;7.88;;;8.70;38.60;;;;;;5029990;28;20388;-53
2023/04/08 02:28:10;;;;;;;17.27;7.82;;;8.70;16.70;;;;;;5029514;28;20406;-53
2023/04/08 02:30:38;;;;;;;20.02;7.85;;;8.70;99.90;;;;;;5043836;28;20764;-53
2023/04/08 02:33:04;;;;;;;20.08;9.30;;;8.70;99.90;;;;;;5049101;28;20393;-53
2023/04/08 02:35:31;;;;;;;21.00;8.18;;;8.70;99.90;;;;;;5049847;28;20484;-53
2023/04/08 02:37:56;;;;;;;18.07;8.50;;;8.80;99.90;;;;;;5048772;28;20390;-53
2023/04/08 02:40:30;;;;;;;17.75;8.38;;;8.80;99.90;;;;;;5049663;28;20388;-53
2023/04/08 02:42:56;;;;;;;18.50;9.40;;;8.80;99.90;;;;;;5048749;28;20447;-53
2023/04/08 02:45:26;;;;;;;18.70;8.27;;;8.80;99.40;;;;;;5049328;28;20468;-53
2023/04/08 02:47:53;;;;;;;21.70;8.82;;;8.80;35.10;;;;;;5048901;28;20373;-53
2023/04/08 02:50:18;;;;;;;17.38;8.82;;;8.90;1.00;;;;;;5049198;28;20381;-53
2023/04/08 02:52:44;;;;;;;22.10;9.53;;;8.80;54.50;;;;;;5048816;28;20443;-53
2023/04/08 02:55:10;;;;;;;18.52;9.00;;;8.80;93.80;;;;;;5051503;28;20461;-53
2023/04/08 02:57:37;;;;;;;20.40;8.93;;;8.70;99.90;;;;;;5052873;28;20500;-53
2023/04/08 03:00:04;;;;;;;17.35;8.48;;;8.70;99.90;;;;;;5052617;28;21035;-53
2023/04/08 03:02:30;;;;;;;20.17;7.90;;;8.60;99.90;;;;;;5053230;28;20381;-53
2023/04/08 03:04:55;;;;;;;18.93;8.30;;;8.90;99.90;;;;;;5052315;28;20705;-53
2023/04/08 03:07:21;;;;;;;19.00;8.48;;;8.50;99.90;;;;;;5053353;28;20424;-53
2023/04/08 03:09:46;;;;;;;19.67;9.00;;;8.40;99.90;;;;;;5052270;28;20450;-53
2023/04/08 03:12:12;;;;;;;20.00;8.80;;;9.20;99.90;;;;;;5053104;28;20394;-53
2023/04/08 03:14:37;;;;;;;20.77;9.03;;;9.20;99.90;;;;;;5052540;28;20456;-53
2023/04/08 03:17:03;;;;;;;20.90;8.68;;;8.50;99.90;;;;;;5050911;28;20451;-53
2023/04/08 03:19:29;;;;;;;24.27;10.40;;;8.50;99.90;;;;;;5052980;28;20398;-53
2023/04/08 03:21:54;;;;;;;16.80;8.43;;;8.50;99.90;;;;;;5052164;28;20777;-53
2023/04/08 03:24:20;;;;;;;19.42;7.88;;;8.50;99.90;;;;;;5052761;28;20382;-53
2023/04/08 03:26:45;;;;;;;20.50;8.40;;;8.60;99.90;;;;;;5051751;28;20381;-53
2023/04/08 03:29:11;;;;;;;21.48;8.85;;;8.60;99.90;;;;;;5050578;28;20421;-53
2023/04/08 03:31:37;;;;;;;22.03;9.40;;;8.60;99.90;;;;;;5052723;28;20467;-53
2023/04/08 03:34:02;;;;;;;20.88;9.27;;;8.60;99.90;;;;;;5051804;28;20414;-53
2023/04/08 03:36:28;;;;;;;24.43;9.53;;;8.60;99.90;;;;;;5052644;28;20389;-53
2023/04/08 03:38:53;;;;;;;21.53;8.30;;;8.60;99.90;;;;;;5051611;28;20389;-52
2023/04/08 03:41:19;;;;;;;20.02;8.80;;;8.60;99.90;;;;;;5052415;28;20472;-53
2023/04/08 03:43:45;;;;;;;23.25;9.77;;;8.60;99.90;;;;;;5051845;28;20388;-53
2023/04/08 03:46:11;;;;;;;19.20;8.30;;;8.60;99.90;;;;;;5052368;28;20774;-53
2023/04/08 03:48:36;;;;;;;19.88;9.52;;;8.60;99.90;;;;;;5052209;28;20387;-53
2023/04/08 03:51:02;;;;;;;19.27;8.40;;;8.60;99.90;;;;;;5052087;28;20374;-53
2023/04/08 03:53:28;;;;;;;23.48;10.32;;;8.60;99.90;;;;;;5052065;28;20437;-53
2023/04/08 03:55:55;;;;;;;22.50;9.33;;;9.70;99.90;;;;;;5051139;28;20401;-53
2023/04/08 03:58:20;;;;;;;25.33;11.13;;;10.40;99.90;;;;;;5052090;28;20405;-53
2023/04/08 04:00:46;;;;;;;21.30;9.97;;;8.60;99.90;;;;;;5051336;28;20393;-53
2023/04/08 04:03:12;;;;;;;23.55;9.30;;;8.50;99.90;;;;;;5051829;28;20393;-53
2023/04/08 04:05:38;;;;;;;27.55;10.32;;;8.40;99.90;;;;;;5051965;28;20400;-53
2023/04/08 04:08:04;;;;;;;22.33;9.85;;;8.30;99.90;;;;;;5051212;28;20409;-53
2023/04/08 04:10:30;;;;;;;21.20;9.30;;;8.30;99.90;;;;;;5051671;28;20465;-53
2023/04/08 04:12:55;;;;;;;24.70;8.93;;;8.80;99.90;;;;;;5051172;28;20472;-53
2023/04/08 04:15:21;;;;;;;25.35;10.38;;;8.30;1.00;;;;;;5051801;28;20409;-53
2023/04/08 04:17:49;;;;;;;28.37;10.80;;;7.90;1.00;;;;;;5051145;28;20472;-53
2023/04/08 04:20:15;;;;;;;22.00;9.55;;;7.80;1.00;;;;;;5052176;28;20390;-55
2023/04/08 04:22:40;;;;;;;25.27;9.98;;;7.60;1.00;;;;;;5051461;28;20452;-55
2023/04/08 04:25:07;;;;;;;24.80;10.40;;;7.60;1.00;;;;;;5051188;28;20804;-55
2023/04/08 04:27:32;;;;;;;26.00;10.98;;;7.60;1.00;;;;;;5051829;28;20397;-55
2023/04/08 04:30:00;;;;;;;26.10;11.30;;;7.60;1.00;;;;;;5050393;28;20773;-55
2023/04/08 04:32:25;;;;;;;25.90;11.30;;;7.50;1.00;;;;;;5051393;28;20373;-55
2023/04/08 04:34:51;;;;;;;22.85;10.35;;;7.80;1.00;;;;;;5050825;28;20750;-55
2023/04/08 04:37:17;;;;;;;26.17;10.47;;;7.60;1.00;;;;;;5051708;28;20835;-55
2023/04/08 04:39:43;;;;;;;27.30;11.23;;;7.70;1.00;;;;;;5050917;28;20377;-55
2023/04/08 04:42:08;;;;;;;28.60;11.18;;;7.70;1.00;;;;;;5051603;28;20386;-53
2023/04/08 04:44:34;;;;;;;25.90;9.87;;;8.50;1.00;;;;;;5051158;28;20382;-53
2023/04/08 04:46:59;;;;;;;27.70;10.25;;;9.00;1.00;;;;;;5050463;28;20373;-53
2023/04/08 04:49:25;;;;;;;27.87;11.03;;;7.80;1.00;;;;;;5051729;28;20377;-53
2023/04/08 04:51:51;;;;;;;26.52;11.10;;;7.80;1.00;;;;;;5050222;28;20381;-53
2023/04/08 04:54:16;;;;;;;29.80;12.40;;;9.00;1.00;;;;;;5050773;28;20503;-53
2023/04/08 04:56:42;;;;;;;31.07;12.80;;;7.80;1.00;;;;;;5051340;28;20396;-53
2023/04/08 04:59:07;;;;;;;23.70;10.57;;;7.80;1.00;;;;;;5050224;28;20409;-55
2023/04/08 05:01:33;;;;;;;26.52;10.43;;;9.10;1.00;;;;;;5050644;28;20385;-55
2023/04/08 05:03:59;;;;;;;24.27;11.03;;;7.80;1.00;;;;;;5050294;28;20855;-55
2023/04/08 05:06:26;;;;;;;26.95;12.00;;;7.80;1.00;;;;;;5050859;28;20385;-55
2023/04/08 05:08:52;;;;;;;29.10;11.70;;;7.70;1.00;;;;;;5049718;28;20819;-55
2023/04/08 05:11:17;;;;;;;25.00;11.20;;;7.80;1.00;;;;;;5051197;28;20485;-55
2023/04/08 05:13:43;;;;;;;26.40;11.90;;;8.00;1.00;;;;;;5050870;28;20417;-55
2023/04/08 05:16:09;;;;;;;26.98;11.80;;;7.60;1.00;;;;;;5050226;28;20389;-55
2023/04/08 05:18:35;;;;;;;28.30;11.20;;;9.40;1.00;;;;;;5050050;28;20727;-55
2023/04/08 05:21:01;;;;;;;27.65;11.38;;;7.60;1.00;;;;;;5050091;28;20392;-55
2023/04/08 05:23:27;;;;;;;24.42;11.27;;;7.60;1.00;;;;;;5050788;28;20727;-55
2023/04/08 05:25:52;;;;;;;28.47;11.30;;;7.60;1.00;;;;;;5050415;28;20373;-53
2023/04/08 05:28:18;;;;;;;26.15;10.98;;;7.70;1.00;;;;;;5050229;28;20790;-53
2023/04/08 05:30:50;;;;;;;23.02;11.00;;;9.50;1.00;;;;;;5049723;28;20959;-53
2023/04/08 05:33:16;;;;;;;28.92;12.65;;;7.80;1.00;;;;;;5050419;28;20691;-53
2023/04/08 05:35:41;;;;;;;27.17;11.85;;;9.30;1.00;;;;;;5050114;28;20855;-53
2023/04/08 05:38:07;;;;;;;28.60;12.10;;;7.90;1.00;;;;;;5049419;28;20424;-53
2023/04/08 05:40:32;;;;;;;25.52;11.88;;;7.90;1.00;;;;;;5050215;28;20381;-53
2023/04/08 05:43:00;;;;;;;25.20;12.13;;;8.00;1.00;;;;;;5049335;28;20393;-53
2023/04/08 05:45:27;;;;;;;28.52;12.60;;;8.00;1.00;;;;;;5049961;28;20409;-53
2023/04/08 05:47:53;;;;;;;25.15;11.60;;;8.00;1.00;;;;;;5049862;28;20676;-53
2023/04/08 05:50:18;;;;;;;23.17;10.93;;;8.10;1.00;;;;;;5050207;28;20381;-53
2023/04/08 05:52:44;;;;;;;25.90;12.60;;;8.20;1.00;;;;;;5049860;28;20384;-53
2023/04/08 05:55:14;;;;;;;24.27;11.67;;;8.40;1.00;;;;;;5049508;28;20509;-53
2023/04/08 05:57:40;;;;;;;26.02;11.13;;;8.40;1.00;;;;;;5032058;28;20732;-53
2023/04/08 06:00:08;;;;;;;30.02;12.45;;;8.40;1.00;;;;;;5048897;28;20385;-53
2023/04/08 06:02:37;;;;;;;24.30;10.83;;;8.40;1.00;;;;;;5050174;28;20381;-53
2023/04/08 06:05:03;;;;;;;24.75;11.43;;;8.40;1.00;;;;;;5042290;28;20397;-53
2023/04/08 06:07:29;;;;;;;25.58;11.13;;;8.50;1.00;;;;;;5050415;28;20386;-53
2023/04/08 06:09:55;;;;;;;25.05;11.02;;;8.60;1.00;;;;;;5048726;28;20380;-53
2023/04/08 06:12:21;;;;;;;24.27;10.80;;;8.70;99.90;;;;;;5049936;28;20461;-53
2023/04/08 06:14:47;;;;;;;23.08;11.27;;;8.80;99.90;;;;;;5049147;28;20437;-53
2023/04/08 06:17:12;;;;;;;27.93;12.00;;;8.90;99.90;;;;;;5049972;28;20385;-53
2023/04/08 06:19:40;;;;;;;26.25;10.32;;;8.90;99.90;;;;;;5049695;28;20759;-53
2023/04/08 06:22:06;;;;;;;22.25;10.20;;;8.90;99.90;;;;;;5048785;28;20851;-53
2023/04/08 06:24:31;;;;;;;22.67;11.20;;;9.00;99.90;;;;;;5031900;28;20374;-53
2023/04/08 06:26:57;;;;;;;23.07;10.40;;;9.10;99.90;;;;;;5048897;28;20759;-53
2023/04/08 06:29:23;;;;;;;26.77;11.95;;;9.20;1.00;;;;;;5049985;28;20437;-53
2023/04/08 06:31:49;;;;;;;26.80;10.60;;;9.30;1.00;;;;;;5053066;28;20382;-53
2023/04/08 06:34:15;;;;;;;19.90;10.90;;;9.40;1.00;;;;;;5054010;28;20862;-53
2023/04/08 06:36:40;;;;;;;25.80;10.60;;;9.50;99.90;;;;;;5053697;28;20450;-53
2023/04/08 06:39:06;;;;;;;22.08;10.02;;;9.30;99.90;;;;;;5053209;28;20385;-53
2023/04/08 06:41:32;;;;;;;26.40;10.60;;;10.40;1.00;;;;;;5053358;28;20377;-53
2023/04/08 06:43:57;;;;;;;22.00;10.67;;;9.20;1.00;;;;;;5052824;28;20389;-53
2023/04/08 06:46:23;;;;;;;25.20;10.75;;;9.20;1.00;;;;;;5053512;28;20381;-53
2023/04/08 06:48:49;;;;;;;23.45;9.98;;;9.30;1.00;;;;;;5052821;28;20388;-53
2023/04/08 06:51:14;;;;;;;22.77;10.13;;;9.20;99.90;;;;;;5053150;28;20389;-53
2023/04/08 06:53:40;;;;;;;23.80;10.63;;;9.60;1.00;;;;;;5053809;28;20405;-53
2023/04/08 06:56:05;;;;;;;24.58;11.00;;;9.60;1.00;;;;;;5052496;28;20434;-53
2023/04/08 06:58:31;;;;;;;23.47;11.20;;;9.50;1.00;;;;;;5053726;28;20477;-53
2023/04/08 07:00:58;;;;;;;18.67;8.70;;;9.60;1.00;;;;;;5052463;28;20393;-53
2023/04/08 07:03:24;;;;;;;24.83;9.93;;;9.70;90.40;;;;;;5053406;28;20408;-53
2023/04/08 07:05:50;;;;;;;18.93;9.50;;;9.80;1.00;;;;;;5052440;28;20416;-53
2023/04/08 07:08:15;;;;;;;21.95;10.50;;;10.10;1.00;;;;;;5053146;28;20417;-53
2023/04/08 07:10:41;;;;;;;19.20;8.60;;;10.40;47.60;;;;;;5053131;28;20378;-57
2023/04/08 07:13:06;;;;;;;21.90;9.63;;;10.50;18.00;;;;;;5052489;28;20439;-57
2023/04/08 07:15:32;;;;;;;19.00;8.20;;;10.80;99.90;;;;;;5053067;28;20423;-56
2023/04/08 07:17:58;;;;;;;17.63;8.60;;;11.10;1.00;;;;;;5052293;28;20385;-55
2023/04/08 07:20:25;;;;;;;19.25;7.35;;;11.30;99.90;;;;;;5052926;28;20448;-56
2023/04/08 07:22:50;;;;;;;19.00;8.30;;;11.40;9.20;;;;;;5051833;28;20859;-57
2023/04/08 07:25:16;;;;;;;17.73;8.65;;;11.70;1.00;;;;;;5052524;28;20384;-56
2023/04/08 07:27:42;;;;;;;15.57;8.00;;;11.80;99.90;;;;;;5052586;28;20397;-56
2023/04/08 07:30:08;;;;;;;18.00;8.40;;;11.60;99.90;;;;;;5051464;28;20416;-57
2023/04/08 07:32:33;;;;;;;20.85;8.07;;;11.80;99.90;;;;;;5052524;28;20447;-53
2023/04/08 07:35:00;;;;;;;15.30;7.82;;;12.20;99.90;;;;;;5051895;28;20406;-53
2023/04/08 07:37:26;;;;;;;15.20;7.80;;;12.50;99.90;;;;;;5052262;28;20393;-54
2023/04/08 07:39:52;;;;;;;16.85;7.55;;;12.30;33.50;;;;;;5051267;28;20433;-53
2023/04/08 07:42:17;;;;;;;16.63;7.40;;;12.00;1.00;;;;;;5052279;28;20803;-53
2023/04/08 07:44:45;;;;;;;16.80;7.97;;;11.90;27.80;;;;;;5052270;28;20469;-53
2023/04/08 07:47:11;;;;;;;14.43;7.03;;;12.00;36.20;;;;;;5051605;28;20515;-53
2023/04/08 07:49:37;;;;;;;16.60;7.13;;;12.40;1.00;;;;;;5052521;28;20486;-53
2023/04/08 07:52:04;;;;;;;17.05;8.20;;;12.60;1.00;;;;;;5051184;28;20937;-55
2023/04/08 07:54:35;;;;;;;15.32;8.15;;;12.50;1.00;;;;;;5052006;28;20421;-55
2023/04/08 07:57:01;;;;;;;14.70;7.40;;;12.50;1.00;;;;;;5051706;28;20401;-56
2023/04/08 07:59:27;;;;;;;16.58;7.88;;;12.50;1.00;;;;;;5051741;28;20389;-55
2023/04/08 08:01:53;;;;;;;15.73;7.40;;;12.50;1.00;;;;;;5052223;28;20465;-56
2023/04/08 08:04:19;;;;;;;16.95;7.30;;;12.40;1.00;;;;;;5051747;28;20465;-56
2023/04/08 08:06:46;;;;;;;16.50;7.70;;;12.40;1.00;;;;;;5051965;28;20953;-56
2023/04/08 08:09:12;;;;;;;16.65;8.25;;;11.40;1.00;;;;;;5051510;28;20472;-56
2023/04/08 08:11:38;;;;;;;34.97;16.40;;;12.60;1.00;;;;;;5051948;28;20476;-55
2023/04/08 08:14:03;;;;;;;19.05;9.35;;;12.30;1.00;;;;;;5051362;28;20918;-55
2023/04/08 08:16:30;;;;;;;18.40;8.20;;;12.50;1.00;;;;;;5051724;28;20397;-55
2023/04/08 08:18:56;;;;;;;15.05;7.63;;;12.40;1.00;;;;;;5051270;28;20858;-56
2023/04/08 08:21:22;;;;;;;14.63;7.45;;;12.30;1.00;;;;;;5051390;28;20387;-55
2023/04/08 08:23:48;;;;;;;15.48;8.27;;;12.10;1.00;;;;;;5050669;28;20850;-56
2023/04/08 08:26:13;;;;;;;17.40;8.37;;;12.20;1.00;;;;;;5051434;28;20412;-55
2023/04/08 08:28:39;;;;;;;16.52;8.13;;;12.70;1.00;;;;;;5051987;28;20867;-56
2023/04/08 08:31:05;;;;;;;16.73;7.73;;;13.20;1.00;;;;;;5032726;28;20791;-54
2023/04/08 08:33:32;;;;;;;17.08;8.55;;;13.60;1.00;;;;;;5051194;28;20389;-54
2023/04/08 08:35:58;;;;;;;16.88;8.50;;;14.00;1.00;;;;;;5051145;28;20397;-54
2023/04/08 08:38:25;;;;;;;18.42;8.60;;;14.20;1.00;;;;;;5050669;28;20480;-54
2023/04/08 08:40:55;;;;;;;17.37;8.07;;;14.70;1.00;;;;;;5050528;28;20432;-54
2023/04/08 08:43:22;;;;;;;15.15;7.75;;;14.80;1.00;;;;;;5050736;28;20730;-54
2023/04/08 08:45:47;;;;;;;16.00;7.40;;;15.10;99.90;;;;;;5051023;28;20869;-54
2023/04/08 08:48:13;;;;;;;15.90;7.93;;;15.10;99.90;;;;;;5050570;28;20373;-54
2023/04/08 08:50:39;;;;;;;14.75;7.65;;;15.40;99.90;;;;;;5050872;28;20684;-54
2023/04/08 08:53:05;;;;;;;14.45;7.35;;;15.30;99.90;;;;;;5049628;28;20385;-54
2023/04/08 08:55:32;;;;;;;18.87;8.53;;;15.50;99.90;;;;;;5051033;28;20420;-54
2023/04/08 08:58:00;;;;;;;15.43;8.20;;;15.50;99.90;;;;;;5049894;28;20400;-54
2023/04/08 09:00:41;;;;;;;18.05;8.43;;;15.90;99.90;;;;;;5050858;28;20405;-54
2023/04/08 09:03:28;;;;;;;15.52;8.52;;;16.30;99.90;;;;;;5050525;28;21120;-54
2023/04/08 09:05:55;;;;;;;16.25;8.23;;;16.30;99.90;;;;;;5050013;28;20382;-55
2023/04/08 09:08:34;;;;;;;15.97;8.40;;;16.90;99.90;;;;;;5050963;28;20381;-54
2023/04/08 09:11:12;;;;;;;15.77;8.38;;;17.30;99.90;;;;;;5050004;28;20384;-55
2023/04/08 09:13:38;;;;;;;15.40;8.27;;;17.40;99.90;;;;;;5050286;28;20405;-54
2023/04/08 09:16:07;;;;;;;14.88;8.68;;;17.50;99.90;;;;;;5050025;28;20373;-55
2023/04/08 09:18:34;;;;;;;16.00;7.70;;;17.40;99.90;;;;;;5050978;28;20378;-54
2023/04/08 09:21:01;;;;;;;16.02;8.55;;;16.80;99.90;;;;;;5050175;28;20404;-54
2023/04/08 09:23:46;;;;;;;17.20;8.97;;;17.10;99.90;;;;;;5050341;28;20384;-54
2023/04/08 09:26:17;;;;;;;15.20;7.95;;;17.20;99.90;;;;;;5049607;28;20381;-55
2023/04/08 09:28:55;;;;;;;16.83;9.15;;;16.70;99.90;;;;;;5050387;28;20389;-54
2023/04/08 09:31:23;;;;;;;15.38;8.80;;;17.50;99.90;;;;;;5050532;28;20390;-55
2023/04/08 09:33:52;;;;;;;16.52;8.40;;;17.30;99.90;;;;;;5049711;28;20397;-55
2023/04/08 09:36:18;;;;;;;17.23;9.82;;;17.00;99.90;;;;;;5050323;28;20443;-54
2023/04/08 09:38:44;;;;;;;16.93;9.23;;;16.60;99.90;;;;;;5050062;28;20468;-54
2023/04/08 09:41:15;;;;;;;15.93;8.68;;;16.50;99.90;;;;;;5049721;28;20377;-54
2023/04/08 09:43:53;;;;;;;15.55;8.82;;;16.20;99.90;;;;;;5049823;28;20465;-54
2023/04/08 09:46:27;;;;;;;17.33;9.38;;;15.80;99.90;;;;;;5050382;28;20377;-54
2023/04/08 09:49:05;;;;;;;18.20;9.30;;;15.40;99.90;;;;;;5049450;28;20443;-55
2023/04/08 09:52:10;;;;;;;16.92;8.93;;;15.70;99.90;;;;;;5049896;28;20374;-54
2023/04/08 09:54:53;;;;;;;19.92;8.80;;;16.00;99.90;;;;;;5047275;28;20424;-54
2023/04/08 09:57:57;;;;;;;17.40;9.37;;;15.20;99.90;;;;;;5049546;28;20732;-55
2023/04/08 10:00:33;;;;;;;16.40;8.80;;;15.10;99.90;;;;;;5047523;28;20406;-55
2023/04/08 10:03:24;;;;;;;17.50;9.02;;;15.50;99.90;;;;;;5049546;28;20472;-55
2023/04/08 10:05:52;;;;;;;15.07;8.57;;;15.50;99.90;;;;;;5049848;28;20463;-56
2023/04/08 10:08:18;;;;;;;15.55;8.70;;;15.60;99.90;;;;;;5049759;28;20435;-55
2023/04/08 10:10:45;;;;;;;17.27;9.47;;;15.70;99.90;;;;;;5049761;28;20385;-55
2023/04/08 10:13:11;;;;;;;17.40;9.00;;;15.20;99.90;;;;;;5049324;28;20472;-55
2023/04/08 10:15:39;;;;;;;15.43;8.67;;;15.60;99.90;;;;;;5049628;28;20491;-55
2023/04/08 10:18:08;;;;;;;15.27;9.20;;;15.70;99.90;;;;;;5049177;28;20396;-55
2023/04/08 10:20:33;;;;;;;16.17;9.40;;;15.10;99.90;;;;;;5050177;28;20406;-55
2023/04/08 10:23:03;;;;;;;15.13;8.30;;;14.50;99.90;;;;;;5049076;28;20413;-55
2023/04/08 10:25:31;;;;;;;16.05;8.90;;;14.50;99.90;;;;;;5049342;28;20377;-55
2023/04/08 10:28:02;;;;;;;18.70;9.48;;;14.60;99.90;;;;;;5048236;28;20487;-55
2023/04/08 10:30:27;;;;;;;15.45;9.07;;;14.40;99.90;;;;;;5049547;28;20813;-55
2023/04/08 10:33:00;;;;;;;18.50;9.40;;;14.60;99.90;;;;;;5048842;28;20397;-56
2023/04/08 10:35:30;;;;;;;18.30;8.80;;;14.60;99.90;;;;;;5049673;28;20481;-55
2023/04/08 10:37:57;;;;;;;18.20;8.63;;;14.30;99.90;;;;;;5049263;28;20861;-54
2023/04/08 10:40:23;;;;;;;17.13;8.47;;;14.00;99.90;;;;;;5049212;28;20476;-54
2023/04/08 10:42:58;;;;;;;16.20;8.73;;;13.60;99.90;;;;;;5031568;28;20587;-54
2023/04/08 10:45:24;;;;;;;15.23;7.97;;;13.40;99.90;;;;;;5049291;28;20483;-54
2023/04/08 10:47:50;;;;;;;15.10;8.50;;;13.20;99.90;;;;;;5049386;28;20553;-54
2023/04/08 10:50:17;;;;;;;18.15;7.68;;;12.90;99.90;;;;;;5048746;28;20863;-54
2023/04/08 10:52:51;;;;;;;14.73;7.80;;;12.80;99.90;;;;;;5049362;28;20369;-54
2023/04/08 10:55:25;;;;;;;15.70;7.65;;;12.60;99.90;;;;;;5049632;28;20409;-54
2023/04/08 10:57:51;;;;;;;15.82;8.30;;;12.70;99.90;;;;;;5049418;28;20401;-54
2023/04/08 11:00:18;;;;;;;14.57;8.05;;;12.80;99.90;;;;;;5049275;28;20390;-54
2023/04/08 11:02:44;;;;;;;14.75;7.80;;;12.60;99.90;;;;;;5049016;28;20382;-54
2023/04/08 11:05:10;;;;;;;17.67;8.80;;;12.50;99.90;;;;;;5048892;28;20464;-54
2023/04/08 11:07:40;;;;;;;16.27;7.60;;;12.50;99.90;;;;;;5049596;28;20396;-54
2023/04/08 11:10:07;;;;;;;15.73;8.63;;;12.70;99.90;;;;;;5048157;28;20378;-54
2023/04/08 11:12:34;;;;;;;16.10;7.80;;;12.70;99.90;;;;;;5049280;28;20396;-54
2023/04/08 11:15:01;;;;;;;17.35;8.25;;;13.00;99.90;;;;;;5048047;28;20401;-54
2023/04/08 11:17:27;;;;;;;15.55;7.65;;;12.80;99.90;;;;;;5052754;28;20874;-54
2023/04/08 11:19:53;;;;;;;17.10;8.65;;;12.70;99.90;;;;;;5052499;28;20529;-54
2023/04/08 11:22:19;;;;;;;15.48;7.60;;;12.60;99.90;;;;;;5052776;28;20813;-54
2023/04/08 11:24:46;;;;;;;16.50;8.63;;;12.80;99.90;;;;;;5052666;28;20385;-54
2023/04/08 11:27:11;;;;;;;15.32;8.10;;;12.90;99.90;;;;;;5052232;28;20723;-54
2023/04/08 11:29:38;;;;;;;14.83;8.37;;;12.90;99.90;;;;;;5052442;28;20420;-54
2023/04/08 11:32:04;;;;;;;15.98;8.40;;;12.90;99.90;;;;;;5052091;28;20430;-54
2023/04/08 11:34:29;;;;;;;17.63;9.00;;;13.00;99.90;;;;;;5051262;28;20425;-54
2023/04/08 11:36:57;;;;;;;17.20;8.05;;;13.10;99.90;;;;;;5051561;28;20389;-54
2023/04/08 11:39:23;;;;;;;16.00;8.20;;;13.00;99.90;;;;;;5052436;28;20381;-54
2023/04/08 11:41:48;;;;;;;16.00;7.83;;;13.00;99.90;;;;;;5052152;28;20571;-55
2023/04/08 11:44:14;;;;;;;16.40;8.77;;;12.80;99.90;;;;;;5051737;28;20420;-54
2023/04/08 11:46:50;;;;;;;15.30;8.32;;;12.90;99.90;;;;;;5052115;28;20718;-55
2023/04/08 11:49:16;;;;;;;14.00;8.10;;;12.80;99.90;;;;;;5052373;28;20433;-54
2023/04/08 11:51:59;;;;;;;14.55;8.40;;;12.80;99.90;;;;;;5051963;28;20739;-54
2023/04/08 11:54:33;;;;;;;16.60;7.88;;;12.70;99.90;;;;;;5052006;28;20409;-54
2023/04/08 11:56:59;;;;;;;16.67;7.57;;;12.70;99.90;;;;;;5051292;28;20393;-54
2023/04/08 11:59:25;;;;;;;16.98;7.93;;;12.50;99.90;;;;;;5052030;28;20490;-54
2023/04/08 12:01:52;;;;;;;15.40;8.00;;;12.50;99.90;;;;;;5051737;28;20393;-55
2023/04/08 12:04:17;;;;;;;15.07;7.40;;;12.50;99.90;;;;;;5051326;28;20397;-54
2023/04/08 12:06:45;;;;;;;18.00;8.53;;;12.40;99.90;;;;;;5052071;28;20385;-54
2023/04/08 12:09:12;;;;;;;16.42;8.02;;;12.20;99.90;;;;;;5051424;28;20442;-55
2023/04/08 12:11:38;;;;;;;16.93;8.27;;;12.20;99.90;;;;;;5052476;28;20476;-55
2023/04/08 12:14:04;;;;;;;18.10;7.72;;;12.20;99.90;;;;;;5050406;28;20405;-55
2023/04/08 12:16:29;;;;;;;16.63;7.90;;;12.50;99.90;;;;;;5051331;28;20875;-55
2023/04/08 12:18:55;;;;;;;16.47;8.00;;;12.60;99.90;;;;;;5051417;28;20412;-55
2023/04/08 12:21:21;;;;;;;15.35;8.40;;;12.60;99.90;;;;;;5051649;28;20374;-55
2023/04/08 12:23:46;;;;;;;17.42;8.15;;;12.50;99.90;;;;;;5051798;28;20465;-55
2023/04/08 12:26:12;;;;;;;15.83;7.93;;;12.50;99.90;;;;;;5050907;28;20373;-55
2023/04/08 12:28:38;;;;;;;17.67;8.65;;;12.60;99.90;;;;;;5051122;28;20393;-55
2023/04/08 12:31:04;;;;;;;14.70;8.20;;;12.50;99.90;;;;;;5051143;28;20477;-55
2023/04/08 12:33:30;;;;;;;15.60;9.20;;;12.60;99.90;;;;;;5051280;28;20432;-55
2023/04/08 12:35:57;;;;;;;16.05;8.25;;;12.70;99.90;;;;;;5051150;28;20413;-55
2023/04/08 12:38:25;;;;;;;20.38;8.27;;;12.60;99.90;;;;;;5051526;28;20435;-55
2023/04/08 12:40:50;;;;;;;16.88;8.35;;;12.60;99.90;;;;;;5050620;28;20386;-55
2023/04/08 12:43:16;;;;;;;17.27;7.93;;;12.70;99.90;;;;;;5050910;28;20745;-54
2023/04/08 12:45:42;;;;;;;14.07;7.90;;;12.50;99.90;;;;;;5051189;28;20477;-54